Time;durP1;ratioP1;P1;durP2;ratioP2;P2;SDS_P1;SDS_P2;PMS_P1;PMS_P2;Temp;Humidity;BMP_temperature;BMP_pressure;BME280_temperature;BME280_humidity;BME280_pressure;Samples;Min_cycle;Max_cycle;Signal;HPM_P1;HPM_P2
2021/12/28 00:01:10;;;;;;;27.65;15.48;;;;;;;3.73;48.45;99361.00;4365671;32;34381;-75
2021/12/28 00:03:40;;;;;;;31.58;15.98;;;;;;;3.76;48.43;99359.81;4380412;32;33450;-75
2021/12/28 00:06:09;;;;;;;25.45;14.02;;;;;;;3.75;48.85;99363.53;4367522;32;33506;-75
2021/12/28 00:08:37;;;;;;;29.05;13.77;;;;;;;3.84;48.75;99363.34;4394357;32;34111;-75
2021/12/28 00:11:06;;;;;;;28.42;13.88;;;;;;;3.64;48.80;99357.47;4368347;32;34232;-75
2021/12/28 00:13:36;;;;;;;31.35;13.75;;;;;;;3.77;48.77;99346.06;4380681;32;33542;-75
2021/12/28 00:18:35;;;;;;;23.33;12.63;;;;;;;3.88;48.66;99350.28;4380668;32;35150;-75
2021/12/28 00:21:05;;;;;;;24.30;12.18;;;;;;;3.92;48.92;99357.00;4380782;32;34202;-75
2021/12/28 00:23:39;;;;;;;24.23;12.98;;;;;;;3.93;49.37;99356.84;4394325;32;34306;-75
2021/12/28 00:26:12;;;;;;;23.52;12.23;;;;;;;3.88;49.56;99358.41;4380957;32;33741;-75
2021/12/28 00:28:42;;;;;;;21.95;11.63;;;;;;;3.89;49.85;99360.97;4380242;32;34378;-75
2021/12/28 00:31:11;;;;;;;20.52;11.25;;;;;;;3.89;49.86;99355.53;4393697;32;33981;-75
2021/12/28 00:33:39;;;;;;;22.87;11.32;;;;;;;3.92;50.40;99362.44;4380229;32;34021;-75
2021/12/28 00:36:09;;;;;;;23.12;11.90;;;;;;;3.90;50.50;99354.47;4367499;32;33734;-75
2021/12/28 00:38:36;;;;;;;21.20;10.60;;;;;;;3.95;50.48;99359.38;4380324;32;32913;-75
2021/12/28 00:41:08;;;;;;;23.20;11.50;;;;;;;4.05;50.20;99362.75;4380284;32;34063;-75
2021/12/28 00:43:38;;;;;;;21.52;12.10;;;;;;;3.90;50.63;99362.63;4368155;32;33469;-75
2021/12/28 00:46:07;;;;;;;23.00;11.35;;;;;;;3.77;50.99;99356.91;4380373;32;33640;-75
2021/12/28 00:48:35;;;;;;;23.33;12.85;;;;;;;3.97;50.83;99365.50;4393241;32;34266;-75
2021/12/28 00:51:04;;;;;;;22.50;11.80;;;;;;;3.91;51.44;99374.31;4380263;32;33960;-75
2021/12/28 00:53:32;;;;;;;23.62;11.18;;;;;;;3.89;51.51;99360.97;4380599;32;33584;-75
2021/12/28 00:56:03;;;;;;;25.48;13.05;;;;;;;3.81;51.71;99363.69;4380264;32;34521;-75
2021/12/28 00:58:33;;;;;;;25.25;12.82;;;;;;;3.95;51.37;99362.94;4380343;32;34864;-75
2021/12/28 01:01:03;;;;;;;27.75;12.48;;;;;;;3.89;51.66;99368.25;4367824;32;32479;-75
2021/12/28 01:03:37;;;;;;;25.70;12.25;;;;;;;4.08;51.31;99369.69;4380614;32;33334;-75
2021/12/28 01:06:05;;;;;;;22.42;11.98;;;;;;;3.97;51.98;99365.50;4380598;32;33730;-75
2021/12/28 01:08:33;;;;;;;24.77;11.68;;;;;;;3.97;52.18;99360.06;4379864;32;34355;-75
2021/12/28 01:11:01;;;;;;;21.98;11.38;;;;;;;3.87;52.72;99363.00;4380079;32;34068;-75
2021/12/28 01:13:30;;;;;;;22.05;10.93;;;;;;;3.94;52.73;99363.97;4367638;32;34173;-75
2021/12/28 01:15:58;;;;;;;22.75;10.88;;;;;;;3.91;53.30;99358.03;4380141;32;33909;-75
2021/12/28 01:18:25;;;;;;;25.92;11.10;;;;;;;3.76;54.37;99357.94;4367830;32;34107;-75
2021/12/28 01:20:55;;;;;;;22.20;11.52;;;;;;;3.84;54.33;99347.06;4368150;32;34654;-75
2021/12/28 01:23:25;;;;;;;23.40;10.35;;;;;;;3.85;54.27;99340.63;4380200;32;33795;-75
2021/12/28 01:25:53;;;;;;;173.40;86.93;;;;;;;3.86;54.54;99338.75;4380320;32;33724;-75
2021/12/28 01:28:20;;;;;;;208.05;87.22;;;;;;;3.79;55.03;99337.75;4367456;32;33025;-75
2021/12/28 01:30:48;;;;;;;47.22;24.25;;;;;;;3.83;54.83;99333.66;4379465;32;34243;-75
2021/12/28 01:33:16;;;;;;;36.25;22.62;;;;;;;3.95;54.51;99337.66;4367577;32;34133;-75
2021/12/28 01:35:44;;;;;;;27.15;13.07;;;;;;;3.89;54.79;99339.25;4367732;32;33875;-75
2021/12/28 01:38:12;;;;;;;24.40;12.43;;;;;;;3.88;54.88;99326.69;4379168;32;34358;-75
2021/12/28 01:40:44;;;;;;;23.20;12.13;;;;;;;3.90;55.18;99329.22;4367306;32;33272;-75
2021/12/28 01:43:17;;;;;;;34.95;17.42;;;;;;;3.84;55.34;99328.06;4380249;32;33540;-75
2021/12/28 01:45:52;;;;;;;54.60;37.42;;;;;;;3.81;55.63;99330.28;4380025;32;33901;-75
2021/12/28 01:48:20;;;;;;;31.80;18.92;;;;;;;3.88;55.38;99334.84;4379935;32;35262;-75
2021/12/28 01:50:49;;;;;;;27.62;16.75;;;;;;;3.92;55.34;99328.00;4393199;32;34783;-75
2021/12/28 01:53:20;;;;;;;33.13;15.32;;;;;;;3.79;55.39;99316.03;4379828;32;33547;-75
2021/12/28 01:55:54;;;;;;;23.23;11.43;;;;;;;3.71;56.01;99324.19;4367463;32;33560;-75
2021/12/28 01:58:22;;;;;;;27.83;12.82;;;;;;;3.79;56.39;99322.31;4379788;32;34392;-75
2021/12/28 02:00:54;;;;;;;30.30;13.13;;;;;;;3.84;56.37;99325.34;4379286;32;33922;-75
2021/12/28 02:03:23;;;;;;;26.23;11.85;;;;;;;3.80;56.80;99328.59;4392776;32;33677;-75
2021/12/28 02:05:55;;;;;;;27.33;12.52;;;;;;;3.66;57.09;99324.72;4393214;32;34499;-75
2021/12/28 02:08:24;;;;;;;24.00;11.82;;;;;;;3.79;56.68;99322.31;4366981;32;33826;-75
2021/12/28 02:10:54;;;;;;;28.45;12.45;;;;;;;3.56;57.83;99318.62;4379268;32;33991;-75
2021/12/28 02:13:22;;;;;;;26.87;12.37;;;;;;;3.29;58.41;99303.59;4393147;32;33832;-75
2021/12/28 02:15:51;;;;;;;27.65;13.02;;;;;;;3.43;58.63;99296.62;4379298;32;34602;-75
2021/12/28 02:18:20;;;;;;;29.48;13.52;;;;;;;3.33;59.49;99293.25;4379622;32;34311;-75
2021/12/28 02:20:49;;;;;;;37.83;14.45;;;;;;;3.10;60.39;99295.84;4379701;32;34141;-75
2021/12/28 02:23:17;;;;;;;33.00;14.07;;;;;;;3.25;60.23;99292.25;4393152;32;34589;-75
2021/12/28 02:25:44;;;;;;;32.63;14.60;;;;;;;3.48;59.84;99295.09;4367160;32;33623;-75
2021/12/28 02:28:15;;;;;;;24.92;12.85;;;;;;;3.43;59.55;99292.03;4367690;32;34394;-75
2021/12/28 02:30:47;;;;;;;33.33;14.63;;;;;;;3.36;59.84;99296.47;4379536;32;34245;-75
2021/12/28 02:33:17;;;;;;;32.47;13.68;;;;;;;3.44;59.57;99301.88;4379666;32;33563;-75
2021/12/28 02:35:44;;;;;;;27.40;13.27;;;;;;;3.24;59.78;99298.72;4379638;32;33423;-75
2021/12/28 02:38:12;;;;;;;29.52;13.88;;;;;;;3.46;59.25;99296.28;4379037;32;34650;-75
2021/12/28 02:40:44;;;;;;;33.67;13.75;;;;;;;3.43;59.21;99302.03;4379619;32;34750;-75
2021/12/28 02:43:14;;;;;;;29.45;13.20;;;;;;;3.46;59.09;99304.41;4393092;32;33656;-75
2021/12/28 02:45:54;;;;;;;33.22;14.93;;;;;;;3.43;59.22;99308.31;4367225;32;33058;-75
2021/12/28 02:48:22;;;;;;;30.30;14.68;;;;;;;3.57;58.50;99299.47;4393061;32;34446;-75
2021/12/28 02:50:54;;;;;;;28.48;13.13;;;;;;;3.60;58.87;99295.56;4392740;32;34148;-75
2021/12/28 02:53:25;;;;;;;29.15;14.20;;;;;;;3.53;59.17;99300.84;4366746;32;33284;-75
2021/12/28 02:55:54;;;;;;;26.85;12.43;;;;;;;3.54;58.67;99301.69;4392736;32;33691;-75
2021/12/28 02:58:34;;;;;;;28.77;14.20;;;;;;;3.44;58.97;99295.59;4379479;32;35387;-75
2021/12/28 03:01:09;;;;;;;31.08;14.80;;;;;;;3.48;58.85;99303.22;4392499;32;34138;-75
2021/12/28 03:03:37;;;;;;;28.70;14.75;;;;;;;3.16;59.61;99304.16;4392908;32;33513;-75
2021/12/28 03:06:10;;;;;;;36.40;13.95;;;;;;;3.21;59.80;99288.22;4392736;32;33975;-75
2021/12/28 03:08:44;;;;;;;35.08;14.65;;;;;;;3.04;60.43;99291.13;4379181;32;35205;-76
2021/12/28 03:11:12;;;;;;;30.12;13.80;;;;;;;3.22;59.83;99287.19;4379961;32;33963;-75
2021/12/28 03:13:43;;;;;;;34.22;15.85;;;;;;;3.41;59.60;99287.81;4383972;32;33519;-76
2021/12/28 03:16:12;;;;;;;33.53;14.73;;;;;;;3.36;59.80;99291.03;4384147;32;33703;-75
2021/12/28 03:18:40;;;;;;;36.13;14.77;;;;;;;3.07;60.65;99286.19;4384094;32;35123;-75
2021/12/28 03:21:09;;;;;;;31.83;15.75;;;;;;;3.25;60.19;99281.41;4383888;32;33693;-75
2021/12/28 03:23:37;;;;;;;31.23;14.48;;;;;;;3.27;60.30;99289.38;4397523;32;34509;-75
2021/12/28 03:26:07;;;;;;;34.92;14.77;;;;;;;3.31;60.10;99305.13;4384131;32;33757;-76
2021/12/28 03:28:39;;;;;;;32.55;14.98;;;;;;;3.47;59.43;99306.97;4383721;32;35033;-75
2021/12/28 03:31:09;;;;;;;33.42;14.75;;;;;;;3.72;58.72;99293.31;4397455;32;33968;-75
2021/12/28 03:33:39;;;;;;;31.42;14.95;;;;;;;3.47;59.34;99285.25;4397053;32;34250;-75
2021/12/28 03:36:08;;;;;;;31.83;15.48;;;;;;;3.47;59.53;99295.25;4383900;32;33584;-75
2021/12/28 03:38:40;;;;;;;32.70;16.48;;;;;;;3.36;59.90;99296.47;4396851;32;35367;-75
2021/12/28 03:41:08;;;;;;;28.20;14.43;;;;;;;3.13;60.39;99290.94;4383503;32;33882;-75
2021/12/28 03:43:41;;;;;;;29.27;15.13;;;;;;;3.31;60.23;99290.72;4383523;32;33608;-75
2021/12/28 03:46:10;;;;;;;29.98;14.25;;;;;;;3.17;60.66;99292.28;4383831;32;33811;-75
2021/12/28 03:48:39;;;;;;;26.67;14.87;;;;;;;3.41;59.88;99296.78;4383834;32;34343;-75
2021/12/28 03:51:08;;;;;;;33.67;15.82;;;;;;;3.45;59.69;99291.87;4396711;32;33749;-75
2021/12/28 03:53:36;;;;;;;37.20;16.02;;;;;;;3.56;59.55;99302.38;4383591;32;34050;-75
2021/12/28 03:56:07;;;;;;;32.30;15.07;;;;;;;3.63;59.27;99304.22;4383389;32;33510;-75
2021/12/28 03:58:36;;;;;;;36.72;16.52;;;;;;;3.30;60.16;99305.28;4383787;32;34519;-75
2021/12/28 04:01:04;;;;;;;36.60;16.35;;;;;;;3.41;60.55;99301.38;4383115;32;34169;-75
2021/12/28 04:03:32;;;;;;;34.92;18.27;;;;;;;3.48;60.24;99300.50;4371222;32;33229;-75
2021/12/28 04:06:07;;;;;;;38.67;17.50;;;;;;;3.49;60.42;99293.22;4383001;32;33771;-75
2021/12/28 04:08:39;;;;;;;37.97;17.98;;;;;;;3.38;60.52;99299.84;4383913;32;34141;-75
2021/12/28 04:13:50;;;;;;;51.00;20.85;;;;;;;3.61;59.99;99306.25;4384300;32;33764;-75
2021/12/28 04:16:21;;;;;;;42.03;19.17;;;;;;;3.36;61.14;99304.59;4370778;32;34627;-75
2021/12/28 04:18:50;;;;;;;45.42;19.83;;;;;;;3.51;61.08;99299.31;4383384;32;34558;-75
2021/12/28 04:21:18;;;;;;;45.22;19.23;;;;;;;3.42;61.28;99295.78;4383191;32;34242;-75
2021/12/28 04:23:46;;;;;;;48.30;19.52;;;;;;;3.58;61.11;99305.75;4380882;32;33816;-75
2021/12/28 04:26:14;;;;;;;44.08;18.67;;;;;;;3.27;62.42;99301.06;4380755;32;34644;-75
2021/12/28 04:28:42;;;;;;;50.53;19.55;;;;;;;3.33;63.04;99304.94;4380426;32;34378;-75
2021/12/28 04:31:16;;;;;;;46.55;20.25;;;;;;;3.29;63.07;99298.16;4380513;32;34041;-75
2021/12/28 04:33:44;;;;;;;45.85;19.70;;;;;;;3.30;63.29;99306.13;4380325;32;33521;-75
2021/12/28 04:36:14;;;;;;;49.55;20.33;;;;;;;3.33;63.39;99310.38;4368231;32;34316;-75
2021/12/28 04:38:43;;;;;;;44.60;17.62;;;;;;;3.43;63.37;99300.19;4394153;32;35064;-75
2021/12/28 04:41:12;;;;;;;40.88;16.15;;;;;;;3.36;63.69;99301.88;4380321;32;34170;-75
2021/12/28 04:43:40;;;;;;;37.78;16.77;;;;;;;3.15;64.31;99301.63;4380356;32;33529;-75
2021/12/28 04:46:07;;;;;;;42.75;16.17;;;;;;;3.17;64.51;99289.56;4380676;32;33469;-75
2021/12/28 04:48:35;;;;;;;41.72;17.00;;;;;;;3.06;65.17;99300.78;4380327;32;35113;-75
2021/12/28 04:51:03;;;;;;;44.85;14.77;;;;;;;3.11;64.97;99301.09;4367969;32;33705;-75
2021/12/28 04:53:33;;;;;;;31.67;14.40;;;;;;;3.23;64.76;99297.03;4393815;32;34259;-75
2021/12/28 04:56:02;;;;;;;37.20;15.43;;;;;;;2.76;65.99;99291.44;4380979;32;34075;-75
2021/12/28 04:58:29;;;;;;;36.50;14.20;;;;;;;2.96;65.63;99292.81;4379846;32;35210;-75
2021/12/28 05:00:57;;;;;;;42.35;16.42;;;;;;;2.95;65.97;99295.69;4367795;32;34757;-75
2021/12/28 05:03:25;;;;;;;39.05;14.45;;;;;;;2.94;65.86;99286.72;4367839;32;34362;-75
2021/12/28 05:05:53;;;;;;;37.22;15.02;;;;;;;2.80;66.43;99284.69;4379769;32;33594;-75
2021/12/28 05:08:21;;;;;;;32.30;13.48;;;;;;;2.94;66.18;99288.56;4380240;32;35182;-75
2021/12/28 05:10:51;;;;;;;36.75;14.13;;;;;;;2.76;66.74;99291.44;4367520;32;34196;-75
2021/12/28 05:13:18;;;;;;;32.42;14.18;;;;;;;2.96;66.12;99290.09;4379709;32;33421;-75
2021/12/28 05:15:48;;;;;;;34.95;14.00;;;;;;;3.10;65.82;99298.56;4367625;32;33633;-75
2021/12/28 05:18:16;;;;;;;34.60;14.45;;;;;;;3.38;64.79;99297.13;4393591;32;34945;-75
2021/12/28 05:20:44;;;;;;;31.80;13.27;;;;;;;3.35;64.73;99296.62;4380053;32;33855;-75
2021/12/28 05:23:12;;;;;;;27.20;11.93;;;;;;;3.27;65.11;99297.50;4380237;32;34241;-75
2021/12/28 05:25:43;;;;;;;28.33;11.48;;;;;;;3.21;65.41;99299.06;4367590;32;33708;-75
2021/12/28 05:28:10;;;;;;;29.77;11.43;;;;;;;3.20;65.08;99297.38;4367557;32;33778;-75
2021/12/28 05:30:38;;;;;;;25.70;11.38;;;;;;;3.23;65.37;99307.87;4367473;32;34248;-75
2021/12/28 05:33:06;;;;;;;19.83;9.90;;;;;;;3.20;65.15;99302.78;4367523;32;33433;-75
2021/12/28 05:35:33;;;;;;;21.35;10.15;;;;;;;3.37;64.87;99308.16;4367210;32;34635;-75
2021/12/28 05:38:01;;;;;;;20.80;9.50;;;;;;;3.29;65.05;99311.72;4366570;32;32973;-75
2021/12/28 05:40:29;;;;;;;24.40;11.00;;;;;;;3.05;65.98;99311.78;4367612;32;34110;-75
2021/12/28 05:42:56;;;;;;;20.67;9.02;;;;;;;3.35;64.91;99313.75;4367600;32;34513;-75
2021/12/28 05:45:24;;;;;;;21.48;8.68;;;;;;;3.40;64.66;99316.81;4367849;32;34025;-75
2021/12/28 05:47:52;;;;;;;21.55;9.25;;;;;;;3.39;64.92;99306.97;4367853;32;34346;-75
2021/12/28 05:50:19;;;;;;;50.72;10.27;;;;;;;3.34;65.27;99313.94;4367443;32;34026;-75
2021/12/28 05:52:51;;;;;;;21.65;9.25;;;;;;;3.02;65.77;99317.53;4380372;32;34407;-75
2021/12/28 05:55:18;;;;;;;20.27;9.02;;;;;;;3.17;65.46;99326.69;4379780;32;33849;-75
2021/12/28 05:57:46;;;;;;;20.23;8.75;;;;;;;3.27;65.25;99325.47;4367362;32;33839;-75
2021/12/28 06:00:14;;;;;;;21.08;7.87;;;;;;;2.94;66.01;99319.22;4379552;32;34176;-75
2021/12/28 06:02:42;;;;;;;19.35;8.18;;;;;;;3.12;66.00;99323.63;4379423;32;33458;-75
2021/12/28 06:05:10;;;;;;;16.12;7.68;;;;;;;3.16;65.39;99325.00;4367085;32;34464;-75
2021/12/28 06:07:40;;;;;;;16.95;7.57;;;;;;;3.18;65.51;99323.81;4367652;32;33059;-75
2021/12/28 06:10:09;;;;;;;19.52;8.38;;;;;;;3.32;65.27;99322.25;4367279;32;34082;-75
2021/12/28 06:12:38;;;;;;;19.25;8.40;;;;;;;3.36;65.19;99326.31;4379889;32;33817;-75
2021/12/28 06:15:08;;;;;;;19.87;8.18;;;;;;;3.31;65.59;99334.09;4367082;32;32902;-75
2021/12/28 06:17:39;;;;;;;17.20;7.05;;;;;;;3.47;64.82;99330.53;4367392;32;35257;-75
2021/12/28 06:20:07;;;;;;;18.30;8.32;;;;;;;3.48;65.21;99335.78;4367641;32;34037;-75
2021/12/28 06:22:38;;;;;;;20.23;8.07;;;;;;;3.61;64.53;99330.66;4367407;32;32818;-75
2021/12/28 06:25:12;;;;;;;20.20;8.88;;;;;;;3.42;65.32;99333.75;4368622;32;33600;-75
2021/12/28 06:27:44;;;;;;;18.55;8.07;;;;;;;3.42;65.14;99327.47;4366821;32;33746;-75
2021/12/28 06:30:12;;;;;;;22.75;8.23;;;;;;;3.36;65.25;99329.00;4367226;32;32699;-75
2021/12/28 06:32:42;;;;;;;18.60;8.02;;;;;;;3.26;65.53;99334.62;4367788;32;33535;-75
2021/12/28 06:35:11;;;;;;;18.20;8.48;;;;;;;3.14;65.96;99337.87;4367279;32;33942;-75
2021/12/28 06:37:39;;;;;;;20.95;9.10;;;;;;;3.10;65.95;99336.50;4367061;32;34324;-76
2021/12/28 06:40:07;;;;;;;19.87;7.95;;;;;;;3.15;65.81;99335.00;4367200;32;33899;-75
2021/12/28 06:42:35;;;;;;;15.00;7.80;;;;;;;3.23;65.72;99336.84;4379661;32;33488;-75
2021/12/28 06:45:04;;;;;;;19.83;8.48;;;;;;;3.32;65.37;99346.66;4379418;32;33517;-75
2021/12/28 06:47:31;;;;;;;20.25;8.75;;;;;;;3.21;65.71;99344.31;4378540;32;34304;-75
2021/12/28 06:49:59;;;;;;;17.33;8.15;;;;;;;3.24;65.71;99344.81;4367475;32;34022;-75
2021/12/28 06:52:27;;;;;;;18.12;8.90;;;;;;;3.35;65.33;99346.31;4378796;32;34204;-75
2021/12/28 06:54:54;;;;;;;19.67;9.48;;;;;;;3.10;65.88;99345.50;4367098;32;34593;-75
2021/12/28 06:57:22;;;;;;;23.23;8.70;;;;;;;3.16;65.90;99347.53;4379171;32;34308;-74
2021/12/28 06:59:50;;;;;;;25.10;11.80;;;;;;;4.10;82.93;99352.19;4379396;32;34090;-75
2021/12/28 07:02:20;;;;;;;20.40;11.05;;;;;;;4.94;80.42;99348.66;4379023;32;33712;-75
2021/12/28 07:04:49;;;;;;;19.50;8.98;;;;;;;4.66;72.35;99352.91;4366513;32;33489;-75
2021/12/28 07:07:17;;;;;;;22.45;9.55;;;;;;;4.34;69.85;99355.84;4379607;32;35354;-75
2021/12/28 07:09:47;;;;;;;18.87;8.32;;;;;;;3.94;65.80;99360.41;4366645;32;33899;-75
2021/12/28 07:12:14;;;;;;;18.77;8.07;;;;;;;4.21;64.83;99354.53;4367112;32;34131;-75
2021/12/28 07:14:42;;;;;;;16.40;8.13;;;;;;;4.05;64.25;99360.03;4379111;32;33717;-75
2021/12/28 07:17:10;;;;;;;17.30;8.48;;;;;;;4.15;63.71;99367.97;4366920;32;34075;-75
2021/12/28 07:19:37;;;;;;;17.17;8.55;;;;;;;3.87;63.98;99373.84;4354248;32;33397;-75
2021/12/28 07:22:07;;;;;;;17.00;7.97;;;;;;;3.79;63.95;99360.31;4379226;32;33479;-75
2021/12/28 07:24:35;;;;;;;22.40;8.75;;;;;;;3.64;64.71;99365.59;4379413;32;33891;-75
2021/12/28 07:27:05;;;;;;;16.65;7.60;;;;;;;3.73;64.31;99371.00;4366798;32;34368;-74
2021/12/28 07:29:33;;;;;;;18.02;7.35;;;;;;;3.47;65.17;99377.47;4366470;32;34192;-75
2021/12/28 07:32:03;;;;;;;20.55;8.25;;;;;;;3.41;65.67;99375.47;4376370;32;33650;-75
2021/12/28 07:34:33;;;;;;;18.75;8.85;;;;;;;3.11;66.48;99370.75;4393937;32;34352;-75
2021/12/28 07:37:01;;;;;;;17.98;8.40;;;;;;;3.29;65.81;99364.09;4394358;32;35352;-75
2021/12/28 07:39:28;;;;;;;17.08;8.27;;;;;;;3.29;66.11;99374.09;4407510;32;34116;-75
2021/12/28 07:41:56;;;;;;;21.25;8.75;;;;;;;3.30;65.75;99370.38;4381536;32;33642;-75
2021/12/28 07:44:24;;;;;;;20.98;9.65;;;;;;;3.19;66.34;99371.59;4381635;32;34292;-76
2021/12/28 07:46:52;;;;;;;21.77;9.38;;;;;;;3.30;66.03;99371.22;4381551;32;34340;-75
2021/12/28 07:49:19;;;;;;;24.08;9.77;;;;;;;3.37;66.07;99373.25;4393530;32;33978;-76
2021/12/28 07:51:49;;;;;;;19.55;9.32;;;;;;;3.03;67.13;99379.72;4381813;32;34559;-75
2021/12/28 07:54:17;;;;;;;21.75;10.25;;;;;;;3.35;66.30;99375.28;4381246;32;34519;-75
2021/12/28 07:56:47;;;;;;;21.67;9.93;;;;;;;3.38;66.18;99380.38;4380873;32;34465;-75
2021/12/28 07:59:15;;;;;;;31.55;11.68;;;;;;;3.25;66.58;99378.22;4383164;32;33713;-76
2021/12/28 08:01:43;;;;;;;23.10;9.27;;;;;;;3.69;72.39;99375.09;4383134;32;31981;-75
2021/12/28 08:04:11;;;;;;;24.48;10.40;;;;;;;3.47;67.85;99376.63;4383613;32;33784;-75
2021/12/28 08:06:39;;;;;;;22.52;9.20;;;;;;;3.46;67.42;99381.22;4383062;32;33404;-75
2021/12/28 08:09:06;;;;;;;20.95;8.68;;;;;;;3.38;66.62;99378.50;4395822;32;34000;-75
2021/12/28 08:11:39;;;;;;;22.25;8.05;;;;;;;3.21;66.91;99374.97;4370835;32;32054;-75
2021/12/28 08:14:07;;;;;;;21.12;8.85;;;;;;;3.14;67.43;99373.12;4396005;32;33512;-75
2021/12/28 08:16:35;;;;;;;20.62;8.50;;;;;;;3.54;67.77;99383.06;4383327;32;34481;-76
2021/12/28 08:19:08;;;;;;;18.08;8.45;;;;;;;3.32;67.64;99384.63;4383075;32;33773;-79
2021/12/28 08:21:45;;;;;;;18.37;7.87;;;;;;;3.39;67.05;99372.06;4385327;32;33895;-75
2021/12/28 08:24:13;;;;;;;17.60;7.62;;;;;;;3.49;66.51;99367.31;4395787;32;34269;-75
2021/12/28 08:26:40;;;;;;;17.42;7.30;;;;;;;3.30;66.92;99371.22;4383053;32;32857;-75
2021/12/28 08:29:10;;;;;;;20.75;8.18;;;;;;;3.13;67.15;99366.84;4383323;32;34054;-76
2021/12/28 08:31:37;;;;;;;15.25;8.00;;;;;;;3.20;67.21;99364.31;4372341;32;33855;-75
2021/12/28 08:34:05;;;;;;;19.25;8.45;;;;;;;3.34;66.88;99370.88;4367631;32;32837;-75
2021/12/28 08:36:33;;;;;;;19.05;8.68;;;;;;;3.22;67.20;99363.13;4380204;32;34529;-75
2021/12/28 08:39:00;;;;;;;16.90;8.23;;;;;;;3.24;67.08;99369.22;4368200;32;35305;-75
2021/12/28 08:41:28;;;;;;;15.40;7.40;;;;;;;3.40;66.69;99376.47;4368360;32;33696;-76
2021/12/28 08:43:56;;;;;;;20.42;8.50;;;;;;;3.29;67.29;99383.09;4368076;32;34509;-76
2021/12/28 08:46:24;;;;;;;18.77;7.93;;;;;;;3.20;66.72;99381.44;4367803;32;34701;-75
2021/12/28 08:48:52;;;;;;;16.98;8.02;;;;;;;3.59;66.09;99391.56;4368093;32;33775;-75
2021/12/28 08:51:20;;;;;;;17.98;7.80;;;;;;;3.65;65.86;99390.87;4380728;32;33514;-75
2021/12/28 08:53:51;;;;;;;23.67;10.90;;;;;;;3.52;66.25;99385.97;4367764;32;33164;-75
2021/12/28 08:56:18;;;;;;;23.25;10.65;;;;;;;3.57;66.38;99389.00;4380385;32;34191;-75
2021/12/28 08:58:46;;;;;;;19.87;9.00;;;;;;;3.41;67.08;99385.47;4380452;32;34779;-75
2021/12/28 09:01:14;;;;;;;27.65;11.07;;;;;;;3.65;66.07;99377.28;4367722;32;34332;-76
2021/12/28 09:03:42;;;;;;;22.15;10.20;;;;;;;3.45;66.56;99387.66;4380399;32;33108;-75
2021/12/28 09:06:09;;;;;;;20.08;9.68;;;;;;;3.33;67.10;99383.59;4355514;32;34598;-75
2021/12/28 09:08:37;;;;;;;20.15;8.88;;;;;;;3.59;65.96;99380.69;4367801;32;34899;-76
2021/12/28 09:11:04;;;;;;;20.83;9.02;;;;;;;3.64;65.76;99371.03;4367308;32;33435;-75
2021/12/28 09:13:37;;;;;;;22.17;9.43;;;;;;;3.37;66.81;99371.38;4380531;32;33626;-75
2021/12/28 09:16:05;;;;;;;25.98;11.18;;;;;;;3.28;66.75;99364.28;4380023;32;34618;-75
2021/12/28 09:18:33;;;;;;;31.40;14.50;;;;;;;3.52;66.33;99364.25;4379996;32;34700;-77
2021/12/28 09:21:00;;;;;;;23.30;11.88;;;;;;;3.39;67.07;99358.50;4367956;32;34318;-76
2021/12/28 09:23:28;;;;;;;24.52;10.98;;;;;;;3.63;67.92;99365.75;4367790;32;33366;-75
2021/12/28 09:26:21;;;;;;;24.63;11.00;;;;;;;3.50;67.41;99360.03;4379833;32;33734;-75
2021/12/28 09:28:49;;;;;;;26.23;12.43;;;;;;;3.61;66.68;99354.25;4367679;32;32495;-75
2021/12/28 09:31:16;;;;;;;36.45;15.60;;;;;;;3.41;67.03;99356.47;4367738;32;33551;-75
2021/12/28 09:33:45;;;;;;;29.73;12.40;;;;;;;3.31;67.63;99366.66;4367860;32;33672;-75
2021/12/28 09:36:14;;;;;;;23.98;10.18;;;;;;;3.36;67.37;99369.69;4367886;32;35180;-75
2021/12/28 09:38:43;;;;;;;30.60;14.05;;;;;;;3.43;67.09;99365.28;4393586;32;34284;-75
2021/12/28 09:41:13;;;;;;;27.40;12.65;;;;;;;3.38;67.05;99361.37;4380264;32;34263;-75
2021/12/28 09:43:41;;;;;;;27.60;12.13;;;;;;;3.45;67.20;99365.12;4380044;32;33649;-75
2021/12/28 09:46:09;;;;;;;26.60;12.57;;;;;;;3.47;67.05;99360.37;4379768;32;34313;-75
2021/12/28 09:48:37;;;;;;;24.92;11.75;;;;;;;3.19;68.32;99354.47;4380019;32;33950;-75
2021/12/28 09:51:06;;;;;;;29.20;12.45;;;;;;;3.34;67.89;99365.47;4379699;32;33687;-75
2021/12/28 09:53:35;;;;;;;24.83;10.80;;;;;;;3.34;67.80;99358.16;4380043;32;34569;-75
2021/12/28 09:56:04;;;;;;;27.17;11.57;;;;;;;3.34;67.42;99355.47;4379939;32;35323;-75
2021/12/28 09:58:39;;;;;;;27.17;11.63;;;;;;;3.19;67.85;99359.91;4379899;32;34669;-75
2021/12/28 10:01:09;;;;;;;28.35;11.75;;;;;;;3.49;66.97;99367.31;4393138;32;33442;-75
2021/12/28 10:03:37;;;;;;;30.25;14.98;;;;;;;3.20;67.96;99359.72;4393464;32;33713;-75
2021/12/28 10:06:19;;;;;;;33.42;13.15;;;;;;;3.06;68.85;99362.28;4379845;32;34261;-75
2021/12/28 10:08:47;;;;;;;33.03;13.35;;;;;;;2.86;69.82;99354.47;4367895;32;34051;-76
2021/12/28 10:11:16;;;;;;;26.02;12.07;;;;;;;3.02;69.33;99366.34;4379053;32;33585;-75
2021/12/28 10:13:43;;;;;;;26.30;12.37;;;;;;;3.06;69.17;99362.28;4366243;32;34493;-74
2021/12/28 10:16:11;;;;;;;24.98;11.07;;;;;;;3.15;68.67;99361.25;4366600;32;34441;-75
2021/12/28 10:18:45;;;;;;;26.15;11.80;;;;;;;3.24;70.78;99344.81;4379528;32;34530;-75
2021/12/28 10:21:16;;;;;;;22.70;10.48;;;;;;;3.28;69.61;99342.59;4364995;32;32058;-75
2021/12/28 10:23:45;;;;;;;20.08;9.50;;;;;;;3.18;68.97;99356.34;4378730;32;33718;-75
2021/12/28 10:26:15;;;;;;;24.50;10.25;;;;;;;3.30;68.31;99348.69;4379070;32;35148;-75
2021/12/28 10:28:44;;;;;;;18.58;8.73;;;;;;;3.33;67.93;99348.34;4354241;32;33398;-76
2021/12/28 10:31:23;;;;;;;19.87;8.73;;;;;;;3.36;67.81;99328.16;4365574;32;33441;-95
2021/12/28 10:33:57;;;;;;;23.95;10.18;;;;;;;3.57;67.18;99337.47;4367346;32;33822;-77
2021/12/28 10:36:33;;;;;;;19.25;9.98;;;;;;;3.15;70.64;99329.56;4354084;32;32587;-74
2021/12/28 10:39:02;;;;;;;19.85;8.95;;;;;;;3.48;68.87;99324.06;4353918;32;32845;-75
2021/12/28 10:41:36;;;;;;;23.12;10.30;;;;;;;3.51;69.54;99332.72;4379761;32;33587;-78
2021/12/28 10:44:04;;;;;;;17.98;9.05;;;;;;;3.53;68.33;99335.25;4367848;32;33676;-75
2021/12/28 10:46:34;;;;;;;21.00;9.50;;;;;;;3.57;67.80;99334.75;4379565;32;34558;-75
2021/12/28 10:49:06;;;;;;;17.52;7.93;;;;;;;3.44;67.68;99325.44;4368401;32;33926;-75
2021/12/28 10:51:41;;;;;;;14.93;7.05;;;;;;;3.45;67.60;99330.69;4379753;32;34095;-75
2021/12/28 10:54:12;;;;;;;17.70;7.62;;;;;;;3.65;66.99;99323.03;4380316;32;33648;-75
2021/12/28 10:56:47;;;;;;;16.73;8.00;;;;;;;3.36;67.76;99311.88;4392932;32;34423;-76
2021/12/28 10:59:21;;;;;;;16.77;9.07;;;;;;;3.49;67.50;99314.94;4379347;32;34003;-75
2021/12/28 11:01:49;;;;;;;22.02;11.15;;;;;;;3.20;68.07;99316.34;4379085;32;33631;-76
2021/12/28 11:04:18;;;;;;;21.25;9.80;;;;;;;3.53;67.65;99305.41;4366873;32;32380;-75
2021/12/28 11:06:51;;;;;;;16.08;7.87;;;;;;;3.35;68.35;99307.47;4366990;32;35274;-76
2021/12/28 11:09:24;;;;;;;15.75;7.45;;;;;;;3.47;67.99;99311.53;4367105;32;33909;-75
2021/12/28 11:12:04;;;;;;;14.25;6.85;;;;;;;3.25;68.59;99323.97;4379041;32;33092;-76
2021/12/28 11:14:33;;;;;;;16.90;7.22;;;;;;;3.41;67.79;99318.50;4379261;32;33838;-76
2021/12/28 11:17:04;;;;;;;14.68;7.22;;;;;;;3.41;67.82;99317.66;4366691;32;34367;-75
2021/12/28 11:19:37;;;;;;;18.62;7.75;;;;;;;3.29;68.32;99312.56;4367044;32;33301;-74
2021/12/28 11:22:11;;;;;;;16.30;7.87;;;;;;;3.35;68.18;99307.47;4379460;32;34291;-76
2021/12/28 11:24:43;;;;;;;18.95;8.55;;;;;;;3.06;68.82;99300.78;4379199;32;33968;-76
2021/12/28 11:27:22;;;;;;;19.90;8.48;;;;;;;3.32;68.12;99289.69;4392527;32;35240;-75
2021/12/28 11:30:10;;;;;;;17.00;8.25;;;;;;;3.54;68.19;99291.69;4378719;32;33385;-77
2021/12/28 11:32:39;;;;;;;17.17;8.70;;;;;;;3.47;68.21;99285.25;4367078;32;34478;-76
2021/12/28 11:35:07;;;;;;;19.52;8.40;;;;;;;3.51;67.99;99281.19;4381192;32;34469;-76
2021/12/28 11:37:34;;;;;;;14.90;7.68;;;;;;;3.56;67.94;99283.38;4368343;32;34670;-75
2021/12/28 11:40:08;;;;;;;16.10;7.53;;;;;;;3.30;68.92;99278.16;4356138;32;32539;-76
2021/12/28 11:42:37;;;;;;;16.12;6.82;;;;;;;3.16;68.78;99276.19;4380731;32;31676;-76
2021/12/28 11:45:05;;;;;;;14.52;7.32;;;;;;;3.25;68.52;99267.84;4368500;32;33686;-76